Terminal Aerodrome Forecast
Issued by NWS

Home | Current Version | Previous Version | Text Only | Print | Product List | Glossary On
Versions: 1 2 3 4 5 6 7 8 9 10 11 12 13 14 15 16 17 18 19 20 21 22 23 24 25 26 27 28 29 30 31 32 33 34
000
FTUS45 KGJT 261733
TAFEGE
TAF
KEGE 261733Z 2618/2718 VRB05KT P6SM VCSH OVC080
     FM261830 09003KT 4SM -SN BR BKN030
      TEMPO 2619/2622 2SM -SN BR OVC025
     FM270200 20005KT 5SM BR VCSH BKN030
     FM270300 00000KT 4SM BR OVC020
     FM271500 00000KT 6SM BR OVC030=

USA.gov is the U.S. government's official web portal to all federal, state and local government web resources and services.